sensor_id;sensor_type;location;lat;lon;timestamp;P1;durP1;ratioP1;P2;durP2;ratioP2
41323;SDS011;27073;51.128;4.220;2023-04-03T00:01:08;10.45;;;4.68;;
41323;SDS011;27073;51.128;4.220;2023-04-03T00:03:36;7.18;;;3.72;;
41323;SDS011;27073;51.128;4.220;2023-04-03T00:06:03;7.30;;;3.97;;
41323;SDS011;27073;51.128;4.220;2023-04-03T00:08:29;5.55;;;4.28;;
41323;SDS011;27073;51.128;4.220;2023-04-03T00:10:58;7.28;;;3.45;;
41323;SDS011;27073;51.128;4.220;2023-04-03T00:13:23;9.05;;;4.00;;
41323;SDS011;27073;51.128;4.220;2023-04-03T00:15:50;8.35;;;4.15;;
41323;SDS011;27073;51.128;4.220;2023-04-03T00:18:16;7.47;;;3.63;;
41323;SDS011;27073;51.128;4.220;2023-04-03T00:20:42;7.55;;;4.07;;
41323;SDS011;27073;51.128;4.220;2023-04-03T00:23:08;8.30;;;3.95;;
41323;SDS011;27073;51.128;4.220;2023-04-03T00:25:33;6.25;;;3.85;;
41323;SDS011;27073;51.128;4.220;2023-04-03T00:27:59;7.22;;;3.55;;
41323;SDS011;27073;51.128;4.220;2023-04-03T00:30:26;6.05;;;3.88;;
41323;SDS011;27073;51.128;4.220;2023-04-03T00:32:52;10.07;;;4.22;;
41323;SDS011;27073;51.128;4.220;2023-04-03T00:35:19;5.75;;;3.95;;
41323;SDS011;27073;51.128;4.220;2023-04-03T00:37:46;10.32;;;4.60;;
41323;SDS011;27073;51.128;4.220;2023-04-03T00:40:14;6.22;;;4.05;;
41323;SDS011;27073;51.128;4.220;2023-04-03T00:42:41;10.65;;;4.50;;
41323;SDS011;27073;51.128;4.220;2023-04-03T00:47:36;7.50;;;4.03;;
41323;SDS011;27073;51.128;4.220;2023-04-03T00:50:04;7.63;;;4.60;;
41323;SDS011;27073;51.128;4.220;2023-04-03T00:52:31;10.20;;;4.40;;
41323;SDS011;27073;51.128;4.220;2023-04-03T00:54:58;8.13;;;4.00;;
41323;SDS011;27073;51.128;4.220;2023-04-03T00:57:28;7.18;;;4.70;;
41323;SDS011;27073;51.128;4.220;2023-04-03T00:59:57;6.47;;;4.38;;
41323;SDS011;27073;51.128;4.220;2023-04-03T01:02:29;9.00;;;4.85;;
41323;SDS011;27073;51.128;4.220;2023-04-03T01:04:55;9.95;;;4.35;;
41323;SDS011;27073;51.128;4.220;2023-04-03T01:07:27;7.82;;;4.70;;
41323;SDS011;27073;51.128;4.220;2023-04-03T01:09:56;7.97;;;4.85;;
41323;SDS011;27073;51.128;4.220;2023-04-03T01:12:25;12.00;;;4.30;;
41323;SDS011;27073;51.128;4.220;2023-04-03T01:14:58;6.97;;;4.68;;
41323;SDS011;27073;51.128;4.220;2023-04-03T01:25:36;8.32;;;4.82;;
41323;SDS011;27073;51.128;4.220;2023-04-03T01:28:05;10.07;;;4.65;;
41323;SDS011;27073;51.128;4.220;2023-04-03T01:30:33;9.23;;;5.03;;
41323;SDS011;27073;51.128;4.220;2023-04-03T01:33:03;8.68;;;4.65;;
41323;SDS011;27073;51.128;4.220;2023-04-03T01:35:29;9.32;;;4.78;;
41323;SDS011;27073;51.128;4.220;2023-04-03T01:37:55;7.53;;;4.65;;
41323;SDS011;27073;51.128;4.220;2023-04-03T01:40:21;8.18;;;4.55;;
41323;SDS011;27073;51.128;4.220;2023-04-03T01:42:47;8.88;;;4.85;;
41323;SDS011;27073;51.128;4.220;2023-04-03T01:45:12;8.60;;;5.20;;
41323;SDS011;27073;51.128;4.220;2023-04-03T01:47:38;7.85;;;5.25;;
41323;SDS011;27073;51.128;4.220;2023-04-03T01:50:05;9.75;;;5.63;;
41323;SDS011;27073;51.128;4.220;2023-04-03T01:52:32;7.13;;;4.82;;
41323;SDS011;27073;51.128;4.220;2023-04-03T01:54:58;7.82;;;4.95;;
41323;SDS011;27073;51.128;4.220;2023-04-03T01:57:24;7.05;;;5.07;;
41323;SDS011;27073;51.128;4.220;2023-04-03T01:59:50;7.22;;;5.03;;
41323;SDS011;27073;51.128;4.220;2023-04-03T02:02:16;9.45;;;4.93;;
41323;SDS011;27073;51.128;4.220;2023-04-03T02:04:42;7.25;;;5.18;;
41323;SDS011;27073;51.128;4.220;2023-04-03T02:07:08;8.10;;;4.90;;
41323;SDS011;27073;51.128;4.220;2023-04-03T02:09:33;12.20;;;4.65;;
41323;SDS011;27073;51.128;4.220;2023-04-03T02:12:00;10.40;;;5.00;;
41323;SDS011;27073;51.128;4.220;2023-04-03T02:14:25;7.93;;;4.72;;
41323;SDS011;27073;51.128;4.220;2023-04-03T02:16:52;8.25;;;4.78;;
41323;SDS011;27073;51.128;4.220;2023-04-03T02:19:21;11.65;;;5.85;;
41323;SDS011;27073;51.128;4.220;2023-04-03T02:21:47;8.20;;;5.10;;
41323;SDS011;27073;51.128;4.220;2023-04-03T02:24:13;7.68;;;5.15;;
41323;SDS011;27073;51.128;4.220;2023-04-03T02:26:39;7.53;;;5.30;;
41323;SDS011;27073;51.128;4.220;2023-04-03T02:29:05;8.45;;;5.07;;
41323;SDS011;27073;51.128;4.220;2023-04-03T02:31:31;8.40;;;5.05;;
41323;SDS011;27073;51.128;4.220;2023-04-03T02:33:58;7.25;;;4.78;;
41323;SDS011;27073;51.128;4.220;2023-04-03T02:36:24;7.10;;;5.22;;
41323;SDS011;27073;51.128;4.220;2023-04-03T02:38:54;11.35;;;5.72;;
41323;SDS011;27073;51.128;4.220;2023-04-03T02:41:20;6.88;;;4.70;;
41323;SDS011;27073;51.128;4.220;2023-04-03T02:43:47;7.90;;;4.68;;
41323;SDS011;27073;51.128;4.220;2023-04-03T02:46:14;9.57;;;5.15;;
41323;SDS011;27073;51.128;4.220;2023-04-03T02:48:41;8.88;;;5.43;;
41323;SDS011;27073;51.128;4.220;2023-04-03T02:51:07;9.23;;;5.18;;
41323;SDS011;27073;51.128;4.220;2023-04-03T02:53:32;8.40;;;5.40;;
41323;SDS011;27073;51.128;4.220;2023-04-03T02:56:04;11.32;;;5.65;;
41323;SDS011;27073;51.128;4.220;2023-04-03T02:58:30;8.90;;;5.70;;
41323;SDS011;27073;51.128;4.220;2023-04-03T03:00:58;8.57;;;6.20;;
41323;SDS011;27073;51.128;4.220;2023-04-03T03:03:23;8.90;;;5.80;;
41323;SDS011;27073;51.128;4.220;2023-04-03T03:05:49;10.30;;;5.53;;
41323;SDS011;27073;51.128;4.220;2023-04-03T03:08:15;6.47;;;4.90;;
41323;SDS011;27073;51.128;4.220;2023-04-03T03:10:41;6.32;;;5.38;;
41323;SDS011;27073;51.128;4.220;2023-04-03T03:13:06;7.50;;;5.40;;
41323;SDS011;27073;51.128;4.220;2023-04-03T03:15:32;10.15;;;5.35;;
41323;SDS011;27073;51.128;4.220;2023-04-03T03:17:58;8.45;;;6.05;;
41323;SDS011;27073;51.128;4.220;2023-04-03T03:20:26;9.85;;;6.43;;
41323;SDS011;27073;51.128;4.220;2023-04-03T03:22:51;8.48;;;4.85;;
41323;SDS011;27073;51.128;4.220;2023-04-03T03:25:17;8.40;;;5.63;;
41323;SDS011;27073;51.128;4.220;2023-04-03T03:27:43;7.43;;;5.47;;
41323;SDS011;27073;51.128;4.220;2023-04-03T03:30:09;8.77;;;5.03;;
41323;SDS011;27073;51.128;4.220;2023-04-03T03:32:35;11.27;;;5.50;;
41323;SDS011;27073;51.128;4.220;2023-04-03T03:35:01;10.07;;;5.15;;
41323;SDS011;27073;51.128;4.220;2023-04-03T03:37:26;7.80;;;5.45;;
41323;SDS011;27073;51.128;4.220;2023-04-03T03:39:52;8.43;;;5.57;;
41323;SDS011;27073;51.128;4.220;2023-04-03T03:42:18;7.13;;;5.47;;
41323;SDS011;27073;51.128;4.220;2023-04-03T03:44:44;10.02;;;4.93;;
41323;SDS011;27073;51.128;4.220;2023-04-03T03:47:10;9.65;;;5.60;;
41323;SDS011;27073;51.128;4.220;2023-04-03T03:49:37;8.05;;;5.25;;
41323;SDS011;27073;51.128;4.220;2023-04-03T03:52:02;8.70;;;5.95;;
41323;SDS011;27073;51.128;4.220;2023-04-03T03:54:28;8.38;;;5.50;;
41323;SDS011;27073;51.128;4.220;2023-04-03T03:56:54;12.63;;;5.75;;
41323;SDS011;27073;51.128;4.220;2023-04-03T03:59:22;9.70;;;6.03;;
41323;SDS011;27073;51.128;4.220;2023-04-03T04:01:48;11.95;;;5.82;;
41323;SDS011;27073;51.128;4.220;2023-04-03T04:04:14;7.90;;;5.55;;
41323;SDS011;27073;51.128;4.220;2023-04-03T04:06:40;9.98;;;6.78;;
41323;SDS011;27073;51.128;4.220;2023-04-03T04:09:08;12.93;;;8.05;;
41323;SDS011;27073;51.128;4.220;2023-04-03T04:11:34;11.07;;;7.53;;
41323;SDS011;27073;51.128;4.220;2023-04-03T04:14:01;11.45;;;7.88;;
41323;SDS011;27073;51.128;4.220;2023-04-03T04:16:28;10.73;;;8.02;;
41323;SDS011;27073;51.128;4.220;2023-04-03T04:18:57;10.80;;;7.40;;
41323;SDS011;27073;51.128;4.220;2023-04-03T04:21:23;9.80;;;6.75;;
41323;SDS011;27073;51.128;4.220;2023-04-03T04:23:51;8.10;;;6.05;;
41323;SDS011;27073;51.128;4.220;2023-04-03T04:26:18;11.23;;;6.35;;
41323;SDS011;27073;51.128;4.220;2023-04-03T04:28:44;9.60;;;6.53;;
41323;SDS011;27073;51.128;4.220;2023-04-03T04:31:10;9.30;;;5.93;;
41323;SDS011;27073;51.128;4.220;2023-04-03T04:33:36;11.95;;;6.25;;
41323;SDS011;27073;51.128;4.220;2023-04-03T04:36:03;9.52;;;6.97;;
41323;SDS011;27073;51.128;4.220;2023-04-03T04:38:29;10.20;;;6.32;;
41323;SDS011;27073;51.128;4.220;2023-04-03T04:40:56;8.93;;;6.22;;
41323;SDS011;27073;51.128;4.220;2023-04-03T04:43:22;16.50;;;6.97;;
41323;SDS011;27073;51.128;4.220;2023-04-03T04:45:59;8.00;;;6.53;;
41323;SDS011;27073;51.128;4.220;2023-04-03T04:48:33;10.10;;;6.55;;
41323;SDS011;27073;51.128;4.220;2023-04-03T04:51:00;12.20;;;7.55;;
41323;SDS011;27073;51.128;4.220;2023-04-03T04:53:27;9.10;;;6.32;;
41323;SDS011;27073;51.128;4.220;2023-04-03T04:55:53;8.77;;;6.85;;
41323;SDS011;27073;51.128;4.220;2023-04-03T04:58:20;10.43;;;6.60;;
41323;SDS011;27073;51.128;4.220;2023-04-03T05:00:46;11.07;;;7.05;;
41323;SDS011;27073;51.128;4.220;2023-04-03T05:03:12;8.77;;;5.85;;
41323;SDS011;27073;51.128;4.220;2023-04-03T05:05:39;9.93;;;6.32;;
41323;SDS011;27073;51.128;4.220;2023-04-03T05:08:05;8.75;;;6.38;;
41323;SDS011;27073;51.128;4.220;2023-04-03T05:10:31;15.20;;;6.88;;
41323;SDS011;27073;51.128;4.220;2023-04-03T05:12:57;12.38;;;7.65;;
41323;SDS011;27073;51.128;4.220;2023-04-03T05:15:23;11.32;;;6.57;;
41323;SDS011;27073;51.128;4.220;2023-04-03T05:17:49;10.10;;;7.22;;
41323;SDS011;27073;51.128;4.220;2023-04-03T05:20:16;14.98;;;7.28;;
41323;SDS011;27073;51.128;4.220;2023-04-03T05:22:44;11.45;;;7.53;;
41323;SDS011;27073;51.128;4.220;2023-04-03T05:25:10;12.25;;;6.88;;
41323;SDS011;27073;51.128;4.220;2023-04-03T05:27:37;14.43;;;7.63;;
41323;SDS011;27073;51.128;4.220;2023-04-03T05:30:03;10.77;;;6.75;;
41323;SDS011;27073;51.128;4.220;2023-04-03T05:32:31;10.80;;;7.80;;
41323;SDS011;27073;51.128;4.220;2023-04-03T05:35:11;8.82;;;7.28;;
41323;SDS011;27073;51.128;4.220;2023-04-03T05:37:37;9.82;;;7.53;;
41323;SDS011;27073;51.128;4.220;2023-04-03T05:40:04;11.00;;;7.63;;
41323;SDS011;27073;51.128;4.220;2023-04-03T05:42:31;13.65;;;9.18;;
41323;SDS011;27073;51.128;4.220;2023-04-03T05:44:58;12.02;;;9.88;;
41323;SDS011;27073;51.128;4.220;2023-04-03T05:47:23;12.73;;;8.98;;
41323;SDS011;27073;51.128;4.220;2023-04-03T05:49:49;12.13;;;8.50;;
41323;SDS011;27073;51.128;4.220;2023-04-03T05:52:27;15.57;;;8.85;;
41323;SDS011;27073;51.128;4.220;2023-04-03T05:54:54;10.80;;;8.43;;
41323;SDS011;27073;51.128;4.220;2023-04-03T05:57:24;12.60;;;8.30;;
41323;SDS011;27073;51.128;4.220;2023-04-03T05:59:50;16.00;;;8.13;;
41323;SDS011;27073;51.128;4.220;2023-04-03T06:02:19;11.18;;;7.65;;
41323;SDS011;27073;51.128;4.220;2023-04-03T06:04:50;12.05;;;7.70;;
41323;SDS011;27073;51.128;4.220;2023-04-03T06:07:17;10.02;;;7.85;;
41323;SDS011;27073;51.128;4.220;2023-04-03T06:09:48;10.38;;;8.82;;
41323;SDS011;27073;51.128;4.220;2023-04-03T06:12:16;11.80;;;9.10;;
41323;SDS011;27073;51.128;4.220;2023-04-03T06:14:43;13.77;;;8.93;;
41323;SDS011;27073;51.128;4.220;2023-04-03T06:17:09;12.48;;;8.10;;
41323;SDS011;27073;51.128;4.220;2023-04-03T06:19:35;13.18;;;8.25;;
41323;SDS011;27073;51.128;4.220;2023-04-03T06:22:01;12.80;;;8.82;;
41323;SDS011;27073;51.128;4.220;2023-04-03T06:24:29;10.88;;;8.55;;
41323;SDS011;27073;51.128;4.220;2023-04-03T06:26:56;12.75;;;8.38;;
41323;SDS011;27073;51.128;4.220;2023-04-03T06:29:22;13.07;;;8.70;;
41323;SDS011;27073;51.128;4.220;2023-04-03T06:31:48;13.02;;;8.38;;
41323;SDS011;27073;51.128;4.220;2023-04-03T06:34:14;12.57;;;8.73;;
41323;SDS011;27073;51.128;4.220;2023-04-03T06:36:40;12.38;;;8.60;;
41323;SDS011;27073;51.128;4.220;2023-04-03T06:39:07;9.18;;;7.53;;
41323;SDS011;27073;51.128;4.220;2023-04-03T06:41:34;11.23;;;7.93;;
41323;SDS011;27073;51.128;4.220;2023-04-03T06:44:00;10.93;;;7.63;;
41323;SDS011;27073;51.128;4.220;2023-04-03T06:46:26;10.90;;;8.23;;
41323;SDS011;27073;51.128;4.220;2023-04-03T06:48:52;11.95;;;7.90;;
41323;SDS011;27073;51.128;4.220;2023-04-03T06:53:49;12.30;;;8.13;;
41323;SDS011;27073;51.128;4.220;2023-04-03T06:56:16;10.88;;;8.02;;
41323;SDS011;27073;51.128;4.220;2023-04-03T06:58:42;10.85;;;7.60;;
41323;SDS011;27073;51.128;4.220;2023-04-03T07:01:09;9.10;;;7.35;;
41323;SDS011;27073;51.128;4.220;2023-04-03T07:03:36;9.75;;;6.85;;
41323;SDS011;27073;51.128;4.220;2023-04-03T07:06:03;9.05;;;6.20;;
41323;SDS011;27073;51.128;4.220;2023-04-03T07:08:30;7.63;;;5.97;;
41323;SDS011;27073;51.128;4.220;2023-04-03T07:10:55;8.73;;;5.45;;
41323;SDS011;27073;51.128;4.220;2023-04-03T07:13:21;11.25;;;7.10;;
41323;SDS011;27073;51.128;4.220;2023-04-03T07:15:47;12.05;;;6.30;;
41323;SDS011;27073;51.128;4.220;2023-04-03T07:18:13;9.93;;;5.60;;
41323;SDS011;27073;51.128;4.220;2023-04-03T07:20:42;13.65;;;5.40;;
41323;SDS011;27073;51.128;4.220;2023-04-03T07:23:08;9.68;;;5.00;;
41323;SDS011;27073;51.128;4.220;2023-04-03T07:25:33;7.97;;;5.13;;
41323;SDS011;27073;51.128;4.220;2023-04-03T07:27:59;8.00;;;5.07;;
41323;SDS011;27073;51.128;4.220;2023-04-03T07:30:25;8.70;;;4.93;;
41323;SDS011;27073;51.128;4.220;2023-04-03T07:32:51;8.80;;;4.85;;
41323;SDS011;27073;51.128;4.220;2023-04-03T07:35:17;6.72;;;4.47;;
41323;SDS011;27073;51.128;4.220;2023-04-03T07:37:44;8.45;;;5.03;;
41323;SDS011;27073;51.128;4.220;2023-04-03T07:40:10;11.90;;;5.25;;
41323;SDS011;27073;51.128;4.220;2023-04-03T07:42:36;7.22;;;4.43;;
41323;SDS011;27073;51.128;4.220;2023-04-03T07:45:02;7.90;;;4.43;;
41323;SDS011;27073;51.128;4.220;2023-04-03T07:47:29;9.18;;;4.70;;
41323;SDS011;27073;51.128;4.220;2023-04-03T07:49:55;7.50;;;4.28;;
41323;SDS011;27073;51.128;4.220;2023-04-03T07:52:22;7.78;;;4.72;;
41323;SDS011;27073;51.128;4.220;2023-04-03T07:54:48;6.75;;;3.83;;
41323;SDS011;27073;51.128;4.220;2023-04-03T07:57:14;6.50;;;4.38;;
41323;SDS011;27073;51.128;4.220;2023-04-03T07:59:40;8.95;;;3.90;;
41323;SDS011;27073;51.128;4.220;2023-04-03T08:02:11;8.43;;;4.57;;
41323;SDS011;27073;51.128;4.220;2023-04-03T08:04:37;8.25;;;4.63;;
41323;SDS011;27073;51.128;4.220;2023-04-03T08:07:03;7.53;;;4.10;;
41323;SDS011;27073;51.128;4.220;2023-04-03T08:09:30;8.82;;;3.85;;
41323;SDS011;27073;51.128;4.220;2023-04-03T08:11:56;7.03;;;3.42;;
41323;SDS011;27073;51.128;4.220;2023-04-03T08:14:23;7.28;;;3.67;;
41323;SDS011;27073;51.128;4.220;2023-04-03T08:16:49;7.65;;;3.72;;
41323;SDS011;27073;51.128;4.220;2023-04-03T08:19:15;9.63;;;4.20;;
41323;SDS011;27073;51.128;4.220;2023-04-03T08:21:43;9.05;;;3.80;;
41323;SDS011;27073;51.128;4.220;2023-04-03T08:24:10;7.30;;;3.58;;
41323;SDS011;27073;51.128;4.220;2023-04-03T08:26:36;10.40;;;3.90;;
41323;SDS011;27073;51.128;4.220;2023-04-03T08:29:02;6.18;;;3.13;;
41323;SDS011;27073;51.128;4.220;2023-04-03T08:31:28;7.60;;;3.38;;
41323;SDS011;27073;51.128;4.220;2023-04-03T08:33:54;5.97;;;3.40;;
41323;SDS011;27073;51.128;4.220;2023-04-03T08:36:22;6.78;;;3.00;;
41323;SDS011;27073;51.128;4.220;2023-04-03T08:38:50;5.93;;;3.50;;
41323;SDS011;27073;51.128;4.220;2023-04-03T08:41:25;8.88;;;3.00;;
41323;SDS011;27073;51.128;4.220;2023-04-03T08:47:10;8.23;;;2.95;;
41323;SDS011;27073;51.128;4.220;2023-04-03T08:49:43;7.15;;;2.90;;
41323;SDS011;27073;51.128;4.220;2023-04-03T08:52:20;5.22;;;2.90;;
41323;SDS011;27073;51.128;4.220;2023-04-03T08:55:00;9.02;;;3.25;;
41323;SDS011;27073;51.128;4.220;2023-04-03T08:57:31;5.95;;;2.25;;
41323;SDS011;27073;51.128;4.220;2023-04-03T09:00:00;7.75;;;2.60;;
41323;SDS011;27073;51.128;4.220;2023-04-03T09:04:58;5.65;;;2.85;;
41323;SDS011;27073;51.128;4.220;2023-04-03T09:07:31;5.50;;;2.30;;
41323;SDS011;27073;51.128;4.220;2023-04-03T09:10:01;6.40;;;2.40;;
41323;SDS011;27073;51.128;4.220;2023-04-03T09:12:32;5.35;;;2.17;;
41323;SDS011;27073;51.128;4.220;2023-04-03T09:23:32;3.88;;;2.17;;
41323;SDS011;27073;51.128;4.220;2023-04-03T09:26:05;4.22;;;2.03;;
41323;SDS011;27073;51.128;4.220;2023-04-03T09:28:36;7.38;;;2.22;;
41323;SDS011;27073;51.128;4.220;2023-04-03T09:31:19;4.70;;;1.80;;
41323;SDS011;27073;51.128;4.220;2023-04-03T09:33:49;6.35;;;2.05;;
41323;SDS011;27073;51.128;4.220;2023-04-03T09:39:10;8.93;;;1.88;;
41323;SDS011;27073;51.128;4.220;2023-04-03T09:41:41;6.13;;;1.65;;
41323;SDS011;27073;51.128;4.220;2023-04-03T09:44:20;4.15;;;1.60;;
41323;SDS011;27073;51.128;4.220;2023-04-03T09:46:48;4.60;;;1.98;;
41323;SDS011;27073;51.128;4.220;2023-04-03T09:49:14;5.10;;;1.98;;
41323;SDS011;27073;51.128;4.220;2023-04-03T09:51:40;6.05;;;2.35;;
41323;SDS011;27073;51.128;4.220;2023-04-03T09:57:04;4.93;;;1.98;;
41323;SDS011;27073;51.128;4.220;2023-04-03T09:59:33;3.80;;;1.60;;
41323;SDS011;27073;51.128;4.220;2023-04-03T10:02:03;7.63;;;1.80;;
41323;SDS011;27073;51.128;4.220;2023-04-03T10:04:47;5.57;;;1.88;;
41323;SDS011;27073;51.128;4.220;2023-04-03T10:07:30;4.22;;;1.63;;
41323;SDS011;27073;51.128;4.220;2023-04-03T10:10:24;3.95;;;1.50;;
41323;SDS011;27073;51.128;4.220;2023-04-03T10:13:03;4.18;;;1.58;;
41323;SDS011;27073;51.128;4.220;2023-04-03T10:15:46;7.88;;;1.17;;
41323;SDS011;27073;51.128;4.220;2023-04-03T10:19:01;3.88;;;1.38;;
41323;SDS011;27073;51.128;4.220;2023-04-03T10:21:34;5.30;;;1.58;;
41323;SDS011;27073;51.128;4.220;2023-04-03T10:24:21;4.75;;;1.40;;
41323;SDS011;27073;51.128;4.220;2023-04-03T10:27:19;3.55;;;1.63;;
41323;SDS011;27073;51.128;4.220;2023-04-03T10:32:44;3.60;;;1.55;;
41323;SDS011;27073;51.128;4.220;2023-04-03T10:35:30;4.53;;;1.48;;
41323;SDS011;27073;51.128;4.220;2023-04-03T10:44:09;4.45;;;1.33;;
41323;SDS011;27073;51.128;4.220;2023-04-03T10:46:50;6.25;;;1.75;;
41323;SDS011;27073;51.128;4.220;2023-04-03T10:52:17;4.18;;;1.50;;
41323;SDS011;27073;51.128;4.220;2023-04-03T10:57:55;3.35;;;0.90;;
41323;SDS011;27073;51.128;4.220;2023-04-03T11:00:40;3.90;;;1.35;;
41323;SDS011;27073;51.128;4.220;2023-04-03T11:03:52;2.65;;;0.82;;
41323;SDS011;27073;51.128;4.220;2023-04-03T11:06:07;5.93;;;1.50;;
41323;SDS011;27073;51.128;4.220;2023-04-03T11:11:35;3.30;;;1.20;;
41323;SDS011;27073;51.128;4.220;2023-04-03T11:16:48;4.72;;;1.10;;
41323;SDS011;27073;51.128;4.220;2023-04-03T11:19:20;4.05;;;0.90;;
41323;SDS011;27073;51.128;4.220;2023-04-03T11:21:54;2.08;;;0.90;;
41323;SDS011;27073;51.128;4.220;2023-04-03T11:24:27;4.63;;;1.35;;
41323;SDS011;27073;51.128;4.220;2023-04-03T11:26:56;5.55;;;1.05;;
41323;SDS011;27073;51.128;4.220;2023-04-03T11:29:27;2.28;;;0.93;;
41323;SDS011;27073;51.128;4.220;2023-04-03T11:32:06;2.47;;;1.00;;
41323;SDS011;27073;51.128;4.220;2023-04-03T11:34:56;4.35;;;0.90;;
41323;SDS011;27073;51.128;4.220;2023-04-03T11:42:45;4.35;;;1.05;;
41323;SDS011;27073;51.128;4.220;2023-04-03T11:48:05;2.13;;;0.93;;
41323;SDS011;27073;51.128;4.220;2023-04-03T11:58:15;2.67;;;1.25;;
41323;SDS011;27073;51.128;4.220;2023-04-03T12:00:51;3.95;;;1.10;;
41323;SDS011;27073;51.128;4.220;2023-04-03T12:16:25;4.22;;;0.95;;
41323;SDS011;27073;51.128;4.220;2023-04-03T12:40:26;4.35;;;0.80;;
41323;SDS011;27073;51.128;4.220;2023-04-03T12:43:00;2.10;;;0.70;;
41323;SDS011;27073;51.128;4.220;2023-04-03T12:45:39;2.38;;;0.70;;
41323;SDS011;27073;51.128;4.220;2023-04-03T12:48:12;3.00;;;0.70;;
41323;SDS011;27073;51.128;4.220;2023-04-03T12:50:43;3.33;;;0.80;;
41323;SDS011;27073;51.128;4.220;2023-04-03T12:53:12;3.35;;;0.70;;
41323;SDS011;27073;51.128;4.220;2023-04-03T12:55:42;3.25;;;0.70;;
41323;SDS011;27073;51.128;4.220;2023-04-03T12:58:41;2.15;;;0.60;;
41323;SDS011;27073;51.128;4.220;2023-04-03T13:01:02;2.90;;;0.80;;
41323;SDS011;27073;51.128;4.220;2023-04-03T13:03:34;2.80;;;0.80;;
41323;SDS011;27073;51.128;4.220;2023-04-03T13:06:02;2.85;;;0.80;;
41323;SDS011;27073;51.128;4.220;2023-04-03T13:08:29;2.67;;;0.60;;
41323;SDS011;27073;51.128;4.220;2023-04-03T13:13:29;2.50;;;0.90;;
41323;SDS011;27073;51.128;4.220;2023-04-03T13:15:55;3.35;;;1.08;;
41323;SDS011;27073;51.128;4.220;2023-04-03T13:18:26;2.05;;;0.90;;
41323;SDS011;27073;51.128;4.220;2023-04-03T13:20:56;1.88;;;0.75;;
41323;SDS011;27073;51.128;4.220;2023-04-03T13:23:31;1.40;;;0.60;;
41323;SDS011;27073;51.128;4.220;2023-04-03T13:26:00;2.25;;;1.00;;
41323;SDS011;27073;51.128;4.220;2023-04-03T13:28:28;1.88;;;0.75;;
41323;SDS011;27073;51.128;4.220;2023-04-03T13:31:03;3.08;;;0.85;;
41323;SDS011;27073;51.128;4.220;2023-04-03T13:33:33;3.78;;;0.93;;
41323;SDS011;27073;51.128;4.220;2023-04-03T13:38:31;3.55;;;0.77;;
41323;SDS011;27073;51.128;4.220;2023-04-03T13:41:00;1.90;;;0.80;;
41323;SDS011;27073;51.128;4.220;2023-04-03T13:43:31;2.17;;;0.95;;
41323;SDS011;27073;51.128;4.220;2023-04-03T13:53:44;2.30;;;0.40;;
41323;SDS011;27073;51.128;4.220;2023-04-03T14:01:45;2.55;;;0.82;;
41323;SDS011;27073;51.128;4.220;2023-04-03T14:04:21;2.17;;;0.80;;
41323;SDS011;27073;51.128;4.220;2023-04-03T14:06:53;3.25;;;1.00;;
41323;SDS011;27073;51.128;4.220;2023-04-03T14:09:19;3.10;;;0.80;;
41323;SDS011;27073;51.128;4.220;2023-04-03T14:11:46;2.67;;;0.70;;
41323;SDS011;27073;51.128;4.220;2023-04-03T14:14:21;2.90;;;0.80;;
41323;SDS011;27073;51.128;4.220;2023-04-03T14:16:56;3.72;;;0.98;;
41323;SDS011;27073;51.128;4.220;2023-04-03T14:19:26;2.10;;;0.88;;
41323;SDS011;27073;51.128;4.220;2023-04-03T14:21:55;5.07;;;1.13;;
41323;SDS011;27073;51.128;4.220;2023-04-03T14:24:22;2.95;;;1.17;;
41323;SDS011;27073;51.128;4.220;2023-04-03T14:26:49;5.95;;;1.17;;
41323;SDS011;27073;51.128;4.220;2023-04-03T14:29:17;4.03;;;1.15;;
41323;SDS011;27073;51.128;4.220;2023-04-03T14:31:43;3.85;;;1.00;;
41323;SDS011;27073;51.128;4.220;2023-04-03T14:34:14;2.35;;;1.02;;
41323;SDS011;27073;51.128;4.220;2023-04-03T14:36:41;2.38;;;0.85;;
41323;SDS011;27073;51.128;4.220;2023-04-03T14:39:10;3.53;;;1.48;;
41323;SDS011;27073;51.128;4.220;2023-04-03T14:41:42;4.45;;;1.70;;
41323;SDS011;27073;51.128;4.220;2023-04-03T14:44:08;4.72;;;1.35;;
41323;SDS011;27073;51.128;4.220;2023-04-03T14:46:35;3.47;;;0.95;;
41323;SDS011;27073;51.128;4.220;2023-04-03T14:49:02;1.33;;;0.57;;
41323;SDS011;27073;51.128;4.220;2023-04-03T14:53:58;3.88;;;1.10;;
41323;SDS011;27073;51.128;4.220;2023-04-03T14:56:26;1.63;;;0.60;;
41323;SDS011;27073;51.128;4.220;2023-04-03T14:58:55;3.20;;;0.95;;
41323;SDS011;27073;51.128;4.220;2023-04-03T15:01:25;3.35;;;1.40;;
41323;SDS011;27073;51.128;4.220;2023-04-03T15:03:52;2.67;;;1.00;;
41323;SDS011;27073;51.128;4.220;2023-04-03T15:06:18;2.00;;;1.00;;
41323;SDS011;27073;51.128;4.220;2023-04-03T15:08:45;2.70;;;0.90;;
41323;SDS011;27073;51.128;4.220;2023-04-03T15:11:12;3.35;;;1.48;;
41323;SDS011;27073;51.128;4.220;2023-04-03T15:13:39;2.17;;;0.95;;
41323;SDS011;27073;51.128;4.220;2023-04-03T15:16:15;3.08;;;0.88;;
41323;SDS011;27073;51.128;4.220;2023-04-03T15:18:43;2.45;;;0.95;;
41323;SDS011;27073;51.128;4.220;2023-04-03T15:21:10;3.10;;;1.05;;
41323;SDS011;27073;51.128;4.220;2023-04-03T15:23:35;1.73;;;0.73;;
41323;SDS011;27073;51.128;4.220;2023-04-03T15:26:02;3.28;;;0.93;;
41323;SDS011;27073;51.128;4.220;2023-04-03T15:28:30;6.80;;;1.70;;
41323;SDS011;27073;51.128;4.220;2023-04-03T15:30:58;3.83;;;1.00;;
41323;SDS011;27073;51.128;4.220;2023-04-03T15:33:25;2.50;;;0.80;;
41323;SDS011;27073;51.128;4.220;2023-04-03T15:35:51;6.28;;;1.20;;
41323;SDS011;27073;51.128;4.220;2023-04-03T15:38:17;5.18;;;1.10;;
41323;SDS011;27073;51.128;4.220;2023-04-03T15:40:43;2.92;;;1.45;;
41323;SDS011;27073;51.128;4.220;2023-04-03T15:43:09;4.00;;;1.13;;
41323;SDS011;27073;51.128;4.220;2023-04-03T15:45:35;3.13;;;1.08;;
41323;SDS011;27073;51.128;4.220;2023-04-03T15:48:02;2.13;;;0.85;;
41323;SDS011;27073;51.128;4.220;2023-04-03T15:50:30;2.80;;;0.88;;
41323;SDS011;27073;51.128;4.220;2023-04-03T15:52:56;2.72;;;0.98;;
41323;SDS011;27073;51.128;4.220;2023-04-03T15:55:26;4.10;;;0.90;;
41323;SDS011;27073;51.128;4.220;2023-04-03T15:57:54;4.63;;;1.77;;
41323;SDS011;27073;51.128;4.220;2023-04-03T16:00:21;2.08;;;0.95;;
41323;SDS011;27073;51.128;4.220;2023-04-03T16:02:48;4.63;;;0.88;;
41323;SDS011;27073;51.128;4.220;2023-04-03T16:05:17;3.13;;;1.00;;
41323;SDS011;27073;51.128;4.220;2023-04-03T16:07:44;2.35;;;0.98;;
41323;SDS011;27073;51.128;4.220;2023-04-03T16:10:11;4.18;;;1.80;;
41323;SDS011;27073;51.128;4.220;2023-04-03T16:12:38;3.83;;;1.00;;
41323;SDS011;27073;51.128;4.220;2023-04-03T16:15:05;1.77;;;1.00;;
41323;SDS011;27073;51.128;4.220;2023-04-03T16:17:32;3.63;;;1.10;;
41323;SDS011;27073;51.128;4.220;2023-04-03T16:20:00;3.65;;;1.17;;
41323;SDS011;27073;51.128;4.220;2023-04-03T16:22:28;4.40;;;1.30;;
41323;SDS011;27073;51.128;4.220;2023-04-03T16:24:55;5.32;;;1.38;;
41323;SDS011;27073;51.128;4.220;2023-04-03T16:27:22;3.13;;;1.13;;
41323;SDS011;27073;51.128;4.220;2023-04-03T16:29:53;5.60;;;1.23;;
41323;SDS011;27073;51.128;4.220;2023-04-03T16:32:20;3.67;;;1.63;;
41323;SDS011;27073;51.128;4.220;2023-04-03T16:34:47;3.42;;;1.48;;
41323;SDS011;27073;51.128;4.220;2023-04-03T16:37:14;3.17;;;1.55;;
41323;SDS011;27073;51.128;4.220;2023-04-03T16:39:40;3.63;;;1.30;;
41323;SDS011;27073;51.128;4.220;2023-04-03T16:42:06;3.25;;;0.93;;
41323;SDS011;27073;51.128;4.220;2023-04-03T16:44:34;2.58;;;0.95;;
41323;SDS011;27073;51.128;4.220;2023-04-03T16:47:03;4.13;;;1.20;;
41323;SDS011;27073;51.128;4.220;2023-04-03T16:49:29;2.85;;;0.90;;
41323;SDS011;27073;51.128;4.220;2023-04-03T16:51:58;4.15;;;1.20;;
41323;SDS011;27073;51.128;4.220;2023-04-03T16:54:24;4.60;;;1.60;;
41323;SDS011;27073;51.128;4.220;2023-04-03T16:56:50;4.38;;;1.27;;
41323;SDS011;27073;51.128;4.220;2023-04-03T16:59:16;3.00;;;1.35;;